sensor_id;sensor_type;location;lat;lon;timestamp;P1;durP1;ratioP1;P2;durP2;ratioP2
18899;SDS011;9582;52.018;6.306;2023-05-10T00:00:46;12.43;;;8.73;;
18899;SDS011;9582;52.018;6.306;2023-05-10T00:03:12;12.50;;;8.07;;
18899;SDS011;9582;52.018;6.306;2023-05-10T00:05:38;13.32;;;8.63;;
18899;SDS011;9582;52.018;6.306;2023-05-10T00:08:05;11.57;;;8.57;;
18899;SDS011;9582;52.018;6.306;2023-05-10T00:10:31;14.30;;;9.32;;
18899;SDS011;9582;52.018;6.306;2023-05-10T00:12:59;13.57;;;9.05;;
18899;SDS011;9582;52.018;6.306;2023-05-10T00:15:26;15.40;;;9.18;;
18899;SDS011;9582;52.018;6.306;2023-05-10T00:17:52;15.13;;;9.10;;
18899;SDS011;9582;52.018;6.306;2023-05-10T00:20:19;14.32;;;9.57;;
18899;SDS011;9582;52.018;6.306;2023-05-10T00:22:45;15.90;;;9.77;;
18899;SDS011;9582;52.018;6.306;2023-05-10T00:25:12;18.65;;;10.88;;
18899;SDS011;9582;52.018;6.306;2023-05-10T00:27:38;17.75;;;10.10;;
18899;SDS011;9582;52.018;6.306;2023-05-10T00:30:07;17.08;;;10.38;;
18899;SDS011;9582;52.018;6.306;2023-05-10T00:32:34;17.17;;;9.98;;
18899;SDS011;9582;52.018;6.306;2023-05-10T00:35:00;16.52;;;9.48;;
18899;SDS011;9582;52.018;6.306;2023-05-10T00:37:27;19.77;;;9.70;;
18899;SDS011;9582;52.018;6.306;2023-05-10T00:39:54;15.60;;;8.75;;
18899;SDS011;9582;52.018;6.306;2023-05-10T00:42:20;14.50;;;9.13;;
18899;SDS011;9582;52.018;6.306;2023-05-10T00:44:47;17.92;;;9.20;;
18899;SDS011;9582;52.018;6.306;2023-05-10T00:47:15;19.73;;;8.88;;
18899;SDS011;9582;52.018;6.306;2023-05-10T00:49:41;16.30;;;9.73;;
18899;SDS011;9582;52.018;6.306;2023-05-10T00:52:09;16.60;;;9.95;;
18899;SDS011;9582;52.018;6.306;2023-05-10T00:54:36;21.33;;;10.60;;
18899;SDS011;9582;52.018;6.306;2023-05-10T00:57:03;17.33;;;9.93;;
18899;SDS011;9582;52.018;6.306;2023-05-10T00:59:30;20.35;;;10.05;;
18899;SDS011;9582;52.018;6.306;2023-05-10T01:01:57;16.70;;;9.68;;
18899;SDS011;9582;52.018;6.306;2023-05-10T01:04:25;24.13;;;11.07;;
18899;SDS011;9582;52.018;6.306;2023-05-10T01:06:52;21.33;;;10.63;;
18899;SDS011;9582;52.018;6.306;2023-05-10T01:09:19;20.70;;;10.63;;
18899;SDS011;9582;52.018;6.306;2023-05-10T01:11:46;22.83;;;11.40;;
18899;SDS011;9582;52.018;6.306;2023-05-10T01:14:15;26.05;;;11.85;;
18899;SDS011;9582;52.018;6.306;2023-05-10T01:16:44;28.17;;;12.48;;
18899;SDS011;9582;52.018;6.306;2023-05-10T01:19:12;22.83;;;11.57;;
18899;SDS011;9582;52.018;6.306;2023-05-10T01:21:48;21.80;;;12.43;;
18899;SDS011;9582;52.018;6.306;2023-05-10T01:24:37;31.67;;;13.52;;
18899;SDS011;9582;52.018;6.306;2023-05-10T01:27:26;42.38;;;15.05;;
18899;SDS011;9582;52.018;6.306;2023-05-10T01:33:18;38.60;;;16.05;;
18899;SDS011;9582;52.018;6.306;2023-05-10T01:35:51;30.63;;;14.65;;
18899;SDS011;9582;52.018;6.306;2023-05-10T01:38:22;40.70;;;17.02;;
18899;SDS011;9582;52.018;6.306;2023-05-10T01:40:57;44.28;;;17.25;;
18899;SDS011;9582;52.018;6.306;2023-05-10T01:43:36;44.50;;;17.90;;
18899;SDS011;9582;52.018;6.306;2023-05-10T01:46:09;44.05;;;18.17;;
18899;SDS011;9582;52.018;6.306;2023-05-10T01:48:41;39.03;;;17.30;;
18899;SDS011;9582;52.018;6.306;2023-05-10T01:51:13;46.03;;;18.10;;
18899;SDS011;9582;52.018;6.306;2023-05-10T01:53:42;48.05;;;18.08;;
18899;SDS011;9582;52.018;6.306;2023-05-10T01:56:12;48.83;;;19.08;;
18899;SDS011;9582;52.018;6.306;2023-05-10T01:58:41;60.63;;;20.85;;
18899;SDS011;9582;52.018;6.306;2023-05-10T02:01:11;56.72;;;20.88;;
18899;SDS011;9582;52.018;6.306;2023-05-10T02:03:40;58.00;;;20.90;;
18899;SDS011;9582;52.018;6.306;2023-05-10T02:06:09;80.95;;;24.08;;
18899;SDS011;9582;52.018;6.306;2023-05-10T02:08:38;82.55;;;25.52;;
18899;SDS011;9582;52.018;6.306;2023-05-10T02:11:07;111.72;;;27.83;;
18899;SDS011;9582;52.018;6.306;2023-05-10T02:13:35;100.40;;;29.25;;
18899;SDS011;9582;52.018;6.306;2023-05-10T02:16:05;107.05;;;28.85;;
18899;SDS011;9582;52.018;6.306;2023-05-10T02:18:32;115.20;;;29.70;;
18899;SDS011;9582;52.018;6.306;2023-05-10T02:21:03;114.70;;;30.35;;
18899;SDS011;9582;52.018;6.306;2023-05-10T02:23:30;116.55;;;30.83;;
18899;SDS011;9582;52.018;6.306;2023-05-10T02:25:57;102.40;;;29.55;;
18899;SDS011;9582;52.018;6.306;2023-05-10T02:28:26;105.82;;;29.48;;
18899;SDS011;9582;52.018;6.306;2023-05-10T02:30:54;110.60;;;31.85;;
18899;SDS011;9582;52.018;6.306;2023-05-10T02:33:21;106.60;;;31.52;;
18899;SDS011;9582;52.018;6.306;2023-05-10T02:35:51;129.48;;;34.72;;
18899;SDS011;9582;52.018;6.306;2023-05-10T02:38:20;136.27;;;35.22;;
18899;SDS011;9582;52.018;6.306;2023-05-10T02:40:49;145.15;;;36.83;;
18899;SDS011;9582;52.018;6.306;2023-05-10T02:43:17;134.82;;;36.30;;
18899;SDS011;9582;52.018;6.306;2023-05-10T02:45:45;143.07;;;38.17;;
18899;SDS011;9582;52.018;6.306;2023-05-10T02:48:13;144.88;;;39.95;;
18899;SDS011;9582;52.018;6.306;2023-05-10T02:50:41;169.02;;;40.47;;
18899;SDS011;9582;52.018;6.306;2023-05-10T02:53:10;172.30;;;42.58;;
18899;SDS011;9582;52.018;6.306;2023-05-10T02:55:42;159.18;;;42.08;;
18899;SDS011;9582;52.018;6.306;2023-05-10T02:58:15;177.55;;;41.53;;
18899;SDS011;9582;52.018;6.306;2023-05-10T03:00:44;180.27;;;42.58;;
18899;SDS011;9582;52.018;6.306;2023-05-10T03:03:11;172.77;;;41.05;;
18899;SDS011;9582;52.018;6.306;2023-05-10T03:05:37;171.82;;;44.13;;
18899;SDS011;9582;52.018;6.306;2023-05-10T03:08:04;174.52;;;42.90;;
18899;SDS011;9582;52.018;6.306;2023-05-10T03:10:31;164.52;;;42.97;;
18899;SDS011;9582;52.018;6.306;2023-05-10T03:13:07;172.88;;;43.55;;
18899;SDS011;9582;52.018;6.306;2023-05-10T03:15:44;152.95;;;42.10;;
18899;SDS011;9582;52.018;6.306;2023-05-10T03:18:21;160.27;;;42.80;;
18899;SDS011;9582;52.018;6.306;2023-05-10T03:20:49;155.85;;;41.35;;
18899;SDS011;9582;52.018;6.306;2023-05-10T03:23:21;158.32;;;41.92;;
18899;SDS011;9582;52.018;6.306;2023-05-10T03:25:52;154.60;;;40.03;;
18899;SDS011;9582;52.018;6.306;2023-05-10T03:28:21;175.80;;;42.25;;
18899;SDS011;9582;52.018;6.306;2023-05-10T03:30:52;142.90;;;39.55;;
18899;SDS011;9582;52.018;6.306;2023-05-10T03:33:19;121.43;;;39.13;;
18899;SDS011;9582;52.018;6.306;2023-05-10T03:35:46;122.38;;;37.38;;
18899;SDS011;9582;52.018;6.306;2023-05-10T03:38:13;110.28;;;36.35;;
18899;SDS011;9582;52.018;6.306;2023-05-10T03:40:40;127.22;;;39.50;;
18899;SDS011;9582;52.018;6.306;2023-05-10T03:43:07;134.75;;;37.65;;
18899;SDS011;9582;52.018;6.306;2023-05-10T03:45:35;113.95;;;35.08;;
18899;SDS011;9582;52.018;6.306;2023-05-10T03:48:01;112.43;;;34.70;;
18899;SDS011;9582;52.018;6.306;2023-05-10T03:50:28;124.63;;;36.55;;
18899;SDS011;9582;52.018;6.306;2023-05-10T03:52:55;119.70;;;36.38;;
18899;SDS011;9582;52.018;6.306;2023-05-10T03:55:22;117.57;;;34.60;;
18899;SDS011;9582;52.018;6.306;2023-05-10T03:57:49;117.22;;;36.38;;
18899;SDS011;9582;52.018;6.306;2023-05-10T04:00:16;129.20;;;36.10;;
18899;SDS011;9582;52.018;6.306;2023-05-10T04:02:44;126.18;;;36.70;;
18899;SDS011;9582;52.018;6.306;2023-05-10T04:05:15;119.25;;;37.30;;
18899;SDS011;9582;52.018;6.306;2023-05-10T04:07:42;131.73;;;38.47;;
18899;SDS011;9582;52.018;6.306;2023-05-10T04:10:10;103.53;;;36.03;;
18899;SDS011;9582;52.018;6.306;2023-05-10T04:12:37;105.10;;;36.58;;
18899;SDS011;9582;52.018;6.306;2023-05-10T04:15:03;111.43;;;37.25;;
18899;SDS011;9582;52.018;6.306;2023-05-10T04:17:31;102.18;;;36.55;;
18899;SDS011;9582;52.018;6.306;2023-05-10T04:19:59;107.82;;;37.33;;
18899;SDS011;9582;52.018;6.306;2023-05-10T04:22:25;106.95;;;37.55;;
18899;SDS011;9582;52.018;6.306;2023-05-10T04:24:52;97.68;;;35.97;;
18899;SDS011;9582;52.018;6.306;2023-05-10T04:27:19;106.43;;;39.17;;
18899;SDS011;9582;52.018;6.306;2023-05-10T04:29:45;92.88;;;35.40;;
18899;SDS011;9582;52.018;6.306;2023-05-10T04:32:12;102.45;;;36.83;;
18899;SDS011;9582;52.018;6.306;2023-05-10T04:34:38;100.72;;;37.85;;
18899;SDS011;9582;52.018;6.306;2023-05-10T04:37:06;119.20;;;41.63;;
18899;SDS011;9582;52.018;6.306;2023-05-10T04:39:33;103.68;;;35.80;;
18899;SDS011;9582;52.018;6.306;2023-05-10T04:42:00;102.53;;;38.83;;
18899;SDS011;9582;52.018;6.306;2023-05-10T04:44:27;97.00;;;36.97;;
18899;SDS011;9582;52.018;6.306;2023-05-10T04:46:54;98.03;;;39.10;;
18899;SDS011;9582;52.018;6.306;2023-05-10T04:49:21;107.70;;;39.83;;
18899;SDS011;9582;52.018;6.306;2023-05-10T04:51:47;110.38;;;41.05;;
18899;SDS011;9582;52.018;6.306;2023-05-10T04:54:15;125.78;;;42.60;;
18899;SDS011;9582;52.018;6.306;2023-05-10T04:56:42;114.40;;;42.22;;
18899;SDS011;9582;52.018;6.306;2023-05-10T04:59:08;103.90;;;42.00;;
18899;SDS011;9582;52.018;6.306;2023-05-10T05:01:34;100.00;;;39.42;;
18899;SDS011;9582;52.018;6.306;2023-05-10T05:04:01;101.95;;;37.80;;
18899;SDS011;9582;52.018;6.306;2023-05-10T05:06:28;94.60;;;37.33;;
18899;SDS011;9582;52.018;6.306;2023-05-10T05:08:54;94.60;;;34.78;;
18899;SDS011;9582;52.018;6.306;2023-05-10T05:11:22;92.30;;;34.25;;
18899;SDS011;9582;52.018;6.306;2023-05-10T05:13:48;96.65;;;36.70;;
18899;SDS011;9582;52.018;6.306;2023-05-10T05:16:15;95.72;;;35.92;;
18899;SDS011;9582;52.018;6.306;2023-05-10T05:18:41;87.65;;;34.42;;
18899;SDS011;9582;52.018;6.306;2023-05-10T05:21:13;86.45;;;35.00;;
18899;SDS011;9582;52.018;6.306;2023-05-10T05:23:40;84.10;;;35.47;;
18899;SDS011;9582;52.018;6.306;2023-05-10T05:26:06;79.68;;;33.92;;
18899;SDS011;9582;52.018;6.306;2023-05-10T05:28:34;82.43;;;35.22;;
18899;SDS011;9582;52.018;6.306;2023-05-10T05:31:02;85.80;;;34.45;;
18899;SDS011;9582;52.018;6.306;2023-05-10T05:33:29;77.22;;;33.60;;
18899;SDS011;9582;52.018;6.306;2023-05-10T05:35:55;87.50;;;37.13;;
18899;SDS011;9582;52.018;6.306;2023-05-10T05:38:22;88.97;;;35.63;;
18899;SDS011;9582;52.018;6.306;2023-05-10T05:40:48;79.15;;;33.33;;
18899;SDS011;9582;52.018;6.306;2023-05-10T05:43:15;87.50;;;35.03;;
18899;SDS011;9582;52.018;6.306;2023-05-10T05:45:43;97.45;;;36.28;;
18899;SDS011;9582;52.018;6.306;2023-05-10T05:48:09;93.70;;;36.13;;
18899;SDS011;9582;52.018;6.306;2023-05-10T05:50:36;87.50;;;34.75;;
18899;SDS011;9582;52.018;6.306;2023-05-10T05:53:02;83.43;;;34.83;;
18899;SDS011;9582;52.018;6.306;2023-05-10T05:55:29;90.55;;;35.67;;
18899;SDS011;9582;52.018;6.306;2023-05-10T05:57:56;86.20;;;35.55;;
18899;SDS011;9582;52.018;6.306;2023-05-10T06:00:23;82.47;;;33.65;;
18899;SDS011;9582;52.018;6.306;2023-05-10T06:02:51;81.00;;;32.25;;
18899;SDS011;9582;52.018;6.306;2023-05-10T06:05:17;90.13;;;35.35;;
18899;SDS011;9582;52.018;6.306;2023-05-10T06:07:45;90.40;;;36.00;;
18899;SDS011;9582;52.018;6.306;2023-05-10T06:10:11;85.95;;;33.83;;
18899;SDS011;9582;52.018;6.306;2023-05-10T06:12:38;87.97;;;34.08;;
18899;SDS011;9582;52.018;6.306;2023-05-10T06:15:05;82.22;;;31.60;;
18899;SDS011;9582;52.018;6.306;2023-05-10T06:17:32;74.80;;;32.67;;
18899;SDS011;9582;52.018;6.306;2023-05-10T06:19:59;67.03;;;29.23;;
18899;SDS011;9582;52.018;6.306;2023-05-10T06:22:26;75.30;;;31.58;;
18899;SDS011;9582;52.018;6.306;2023-05-10T06:24:53;71.07;;;32.25;;
18899;SDS011;9582;52.018;6.306;2023-05-10T06:27:20;66.55;;;31.23;;
18899;SDS011;9582;52.018;6.306;2023-05-10T06:29:46;69.25;;;30.35;;
18899;SDS011;9582;52.018;6.306;2023-05-10T06:32:13;67.13;;;30.75;;
18899;SDS011;9582;52.018;6.306;2023-05-10T06:34:39;75.30;;;31.00;;
18899;SDS011;9582;52.018;6.306;2023-05-10T06:37:07;69.43;;;32.90;;
18899;SDS011;9582;52.018;6.306;2023-05-10T06:39:33;73.43;;;31.42;;
18899;SDS011;9582;52.018;6.306;2023-05-10T06:42:00;68.60;;;30.23;;
18899;SDS011;9582;52.018;6.306;2023-05-10T06:44:31;66.68;;;28.95;;
18899;SDS011;9582;52.018;6.306;2023-05-10T06:46:58;70.88;;;30.80;;
18899;SDS011;9582;52.018;6.306;2023-05-10T06:49:24;57.60;;;28.45;;
18899;SDS011;9582;52.018;6.306;2023-05-10T06:51:51;70.25;;;30.35;;
18899;SDS011;9582;52.018;6.306;2023-05-10T06:54:19;64.88;;;29.00;;
18899;SDS011;9582;52.018;6.306;2023-05-10T06:56:45;63.25;;;29.30;;
18899;SDS011;9582;52.018;6.306;2023-05-10T06:59:12;73.03;;;31.23;;
18899;SDS011;9582;52.018;6.306;2023-05-10T07:01:39;71.47;;;29.70;;
18899;SDS011;9582;52.018;6.306;2023-05-10T07:04:05;70.43;;;31.77;;
18899;SDS011;9582;52.018;6.306;2023-05-10T07:06:32;77.72;;;30.33;;
18899;SDS011;9582;52.018;6.306;2023-05-10T07:08:59;67.40;;;29.20;;
18899;SDS011;9582;52.018;6.306;2023-05-10T07:11:27;71.70;;;30.85;;
18899;SDS011;9582;52.018;6.306;2023-05-10T07:13:54;59.05;;;29.38;;
18899;SDS011;9582;52.018;6.306;2023-05-10T07:16:20;60.72;;;27.95;;
18899;SDS011;9582;52.018;6.306;2023-05-10T07:18:47;66.28;;;27.60;;
18899;SDS011;9582;52.018;6.306;2023-05-10T07:21:15;67.45;;;28.23;;
18899;SDS011;9582;52.018;6.306;2023-05-10T07:23:41;59.42;;;26.75;;
18899;SDS011;9582;52.018;6.306;2023-05-10T07:26:08;57.50;;;28.67;;
18899;SDS011;9582;52.018;6.306;2023-05-10T07:28:38;66.55;;;29.42;;
18899;SDS011;9582;52.018;6.306;2023-05-10T07:31:04;62.50;;;30.38;;
18899;SDS011;9582;52.018;6.306;2023-05-10T07:33:30;57.00;;;28.38;;
18899;SDS011;9582;52.018;6.306;2023-05-10T07:35:57;67.78;;;30.02;;
18899;SDS011;9582;52.018;6.306;2023-05-10T07:38:23;55.88;;;28.23;;
18899;SDS011;9582;52.018;6.306;2023-05-10T07:40:50;62.63;;;28.38;;
18899;SDS011;9582;52.018;6.306;2023-05-10T07:43:16;66.97;;;30.58;;
18899;SDS011;9582;52.018;6.306;2023-05-10T07:45:44;58.95;;;29.83;;
18899;SDS011;9582;52.018;6.306;2023-05-10T07:48:11;65.85;;;30.42;;
18899;SDS011;9582;52.018;6.306;2023-05-10T07:50:37;74.82;;;31.02;;
18899;SDS011;9582;52.018;6.306;2023-05-10T07:53:04;73.88;;;30.73;;
18899;SDS011;9582;52.018;6.306;2023-05-10T07:55:30;76.15;;;31.25;;
18899;SDS011;9582;52.018;6.306;2023-05-10T07:57:56;74.10;;;31.92;;
18899;SDS011;9582;52.018;6.306;2023-05-10T08:00:26;69.78;;;32.20;;
18899;SDS011;9582;52.018;6.306;2023-05-10T08:02:54;77.82;;;31.90;;
18899;SDS011;9582;52.018;6.306;2023-05-10T08:05:20;73.60;;;32.38;;
18899;SDS011;9582;52.018;6.306;2023-05-10T08:07:47;76.57;;;30.75;;
18899;SDS011;9582;52.018;6.306;2023-05-10T08:10:13;73.78;;;31.67;;
18899;SDS011;9582;52.018;6.306;2023-05-10T08:12:40;81.13;;;31.10;;
18899;SDS011;9582;52.018;6.306;2023-05-10T08:15:07;73.55;;;30.83;;
18899;SDS011;9582;52.018;6.306;2023-05-10T08:17:34;74.75;;;32.78;;
18899;SDS011;9582;52.018;6.306;2023-05-10T08:20:02;73.82;;;32.08;;
18899;SDS011;9582;52.018;6.306;2023-05-10T08:22:29;77.95;;;32.20;;
18899;SDS011;9582;52.018;6.306;2023-05-10T08:24:56;71.25;;;33.15;;
18899;SDS011;9582;52.018;6.306;2023-05-10T08:27:22;64.55;;;30.77;;
18899;SDS011;9582;52.018;6.306;2023-05-10T08:29:48;69.22;;;32.85;;
18899;SDS011;9582;52.018;6.306;2023-05-10T08:32:15;72.80;;;33.95;;
18899;SDS011;9582;52.018;6.306;2023-05-10T08:34:41;67.45;;;33.45;;
18899;SDS011;9582;52.018;6.306;2023-05-10T08:37:09;62.78;;;32.15;;
18899;SDS011;9582;52.018;6.306;2023-05-10T08:39:38;64.05;;;34.10;;
18899;SDS011;9582;52.018;6.306;2023-05-10T08:42:04;67.82;;;34.70;;
18899;SDS011;9582;52.018;6.306;2023-05-10T08:44:34;60.95;;;31.92;;
18899;SDS011;9582;52.018;6.306;2023-05-10T08:47:02;63.53;;;32.10;;
18899;SDS011;9582;52.018;6.306;2023-05-10T08:49:31;61.70;;;32.70;;
18899;SDS011;9582;52.018;6.306;2023-05-10T08:51:59;69.40;;;35.15;;
18899;SDS011;9582;52.018;6.306;2023-05-10T08:54:32;61.45;;;31.30;;
18899;SDS011;9582;52.018;6.306;2023-05-10T08:56:59;60.25;;;30.70;;
18899;SDS011;9582;52.018;6.306;2023-05-10T08:59:26;63.03;;;32.22;;
18899;SDS011;9582;52.018;6.306;2023-05-10T09:01:53;57.28;;;32.20;;
18899;SDS011;9582;52.018;6.306;2023-05-10T09:04:23;59.10;;;31.83;;
18899;SDS011;9582;52.018;6.306;2023-05-10T09:06:50;57.95;;;30.70;;
18899;SDS011;9582;52.018;6.306;2023-05-10T09:09:16;50.75;;;29.60;;
18899;SDS011;9582;52.018;6.306;2023-05-10T09:11:44;56.20;;;29.75;;
18899;SDS011;9582;52.018;6.306;2023-05-10T09:14:12;55.00;;;31.02;;
18899;SDS011;9582;52.018;6.306;2023-05-10T09:16:39;50.70;;;29.35;;
18899;SDS011;9582;52.018;6.306;2023-05-10T09:19:06;55.25;;;29.50;;
18899;SDS011;9582;52.018;6.306;2023-05-10T09:21:33;55.80;;;28.98;;
18899;SDS011;9582;52.018;6.306;2023-05-10T09:24:02;50.50;;;27.08;;
18899;SDS011;9582;52.018;6.306;2023-05-10T09:26:29;41.38;;;25.90;;
18899;SDS011;9582;52.018;6.306;2023-05-10T09:28:58;49.05;;;28.13;;
18899;SDS011;9582;52.018;6.306;2023-05-10T09:31:37;45.95;;;26.25;;
18899;SDS011;9582;52.018;6.306;2023-05-10T09:34:11;41.10;;;21.35;;
18899;SDS011;9582;52.018;6.306;2023-05-10T09:36:49;44.28;;;22.80;;
18899;SDS011;9582;52.018;6.306;2023-05-10T09:39:17;47.35;;;25.05;;
18899;SDS011;9582;52.018;6.306;2023-05-10T09:41:43;41.38;;;22.67;;
18899;SDS011;9582;52.018;6.306;2023-05-10T09:44:11;43.90;;;23.73;;
18899;SDS011;9582;52.018;6.306;2023-05-10T09:46:38;43.03;;;22.70;;
18899;SDS011;9582;52.018;6.306;2023-05-10T09:49:04;43.13;;;23.58;;
18899;SDS011;9582;52.018;6.306;2023-05-10T09:51:31;43.63;;;24.63;;
18899;SDS011;9582;52.018;6.306;2023-05-10T09:54:08;47.80;;;23.25;;
18899;SDS011;9582;52.018;6.306;2023-05-10T09:56:36;39.15;;;21.80;;
18899;SDS011;9582;52.018;6.306;2023-05-10T09:59:04;39.63;;;21.50;;
18899;SDS011;9582;52.018;6.306;2023-05-10T10:01:32;36.97;;;21.88;;
18899;SDS011;9582;52.018;6.306;2023-05-10T10:03:59;39.08;;;21.20;;
18899;SDS011;9582;52.018;6.306;2023-05-10T10:06:29;35.28;;;20.45;;
18899;SDS011;9582;52.018;6.306;2023-05-10T10:08:55;30.75;;;18.95;;
18899;SDS011;9582;52.018;6.306;2023-05-10T10:11:23;32.75;;;19.25;;
18899;SDS011;9582;52.018;6.306;2023-05-10T10:13:50;35.20;;;19.40;;
18899;SDS011;9582;52.018;6.306;2023-05-10T10:16:16;33.00;;;19.35;;
18899;SDS011;9582;52.018;6.306;2023-05-10T10:18:44;31.05;;;18.80;;
18899;SDS011;9582;52.018;6.306;2023-05-10T10:21:12;30.17;;;18.52;;
18899;SDS011;9582;52.018;6.306;2023-05-10T10:23:39;25.63;;;16.17;;
18899;SDS011;9582;52.018;6.306;2023-05-10T10:26:06;24.58;;;15.70;;
18899;SDS011;9582;52.018;6.306;2023-05-10T10:28:35;26.15;;;15.25;;
18899;SDS011;9582;52.018;6.306;2023-05-10T10:31:13;25.08;;;15.93;;
18899;SDS011;9582;52.018;6.306;2023-05-10T10:33:55;22.55;;;14.68;;
18899;SDS011;9582;52.018;6.306;2023-05-10T10:36:25;20.85;;;13.65;;
18899;SDS011;9582;52.018;6.306;2023-05-10T10:38:56;22.05;;;14.07;;
18899;SDS011;9582;52.018;6.306;2023-05-10T10:41:30;18.05;;;12.93;;
18899;SDS011;9582;52.018;6.306;2023-05-10T10:47:24;20.67;;;13.27;;
18899;SDS011;9582;52.018;6.306;2023-05-10T10:50:06;17.10;;;11.30;;
18899;SDS011;9582;52.018;6.306;2023-05-10T10:52:33;13.57;;;9.18;;
18899;SDS011;9582;52.018;6.306;2023-05-10T10:55:01;11.05;;;7.78;;
18899;SDS011;9582;52.018;6.306;2023-05-10T10:57:41;8.68;;;5.85;;
18899;SDS011;9582;52.018;6.306;2023-05-10T11:00:19;12.05;;;7.18;;
18899;SDS011;9582;52.018;6.306;2023-05-10T11:02:48;12.13;;;7.47;;
18899;SDS011;9582;52.018;6.306;2023-05-10T11:05:33;8.07;;;6.07;;
18899;SDS011;9582;52.018;6.306;2023-05-10T11:08:08;9.13;;;6.70;;
18899;SDS011;9582;52.018;6.306;2023-05-10T11:10:36;12.30;;;7.57;;
18899;SDS011;9582;52.018;6.306;2023-05-10T11:13:04;12.23;;;7.65;;
18899;SDS011;9582;52.018;6.306;2023-05-10T11:15:32;7.55;;;5.50;;
18899;SDS011;9582;52.018;6.306;2023-05-10T11:17:59;8.55;;;5.75;;
18899;SDS011;9582;52.018;6.306;2023-05-10T11:20:43;9.35;;;5.88;;
18899;SDS011;9582;52.018;6.306;2023-05-10T11:23:12;10.65;;;6.55;;
18899;SDS011;9582;52.018;6.306;2023-05-10T11:25:41;10.30;;;6.82;;
18899;SDS011;9582;52.018;6.306;2023-05-10T11:28:09;10.15;;;7.38;;
18899;SDS011;9582;52.018;6.306;2023-05-10T11:30:35;10.65;;;7.32;;
18899;SDS011;9582;52.018;6.306;2023-05-10T11:33:02;9.82;;;7.70;;
18899;SDS011;9582;52.018;6.306;2023-05-10T11:35:29;11.05;;;7.80;;
18899;SDS011;9582;52.018;6.306;2023-05-10T11:37:56;8.88;;;6.47;;
18899;SDS011;9582;52.018;6.306;2023-05-10T11:40:23;10.93;;;6.95;;
18899;SDS011;9582;52.018;6.306;2023-05-10T11:42:51;11.43;;;7.45;;
18899;SDS011;9582;52.018;6.306;2023-05-10T11:45:17;13.55;;;9.00;;
18899;SDS011;9582;52.018;6.306;2023-05-10T11:47:44;8.35;;;6.82;;
18899;SDS011;9582;52.018;6.306;2023-05-10T11:50:14;11.48;;;7.55;;
18899;SDS011;9582;52.018;6.306;2023-05-10T11:52:41;10.40;;;7.47;;
18899;SDS011;9582;52.018;6.306;2023-05-10T11:55:09;11.98;;;7.05;;
18899;SDS011;9582;52.018;6.306;2023-05-10T11:57:35;12.73;;;8.07;;
18899;SDS011;9582;52.018;6.306;2023-05-10T12:00:03;10.38;;;7.88;;
18899;SDS011;9582;52.018;6.306;2023-05-10T12:02:32;10.57;;;7.53;;
18899;SDS011;9582;52.018;6.306;2023-05-10T12:04:59;12.02;;;8.63;;
18899;SDS011;9582;52.018;6.306;2023-05-10T12:07:26;16.60;;;8.45;;
18899;SDS011;9582;52.018;6.306;2023-05-10T12:10:02;11.77;;;7.72;;
18899;SDS011;9582;52.018;6.306;2023-05-10T12:12:36;11.63;;;8.23;;
18899;SDS011;9582;52.018;6.306;2023-05-10T12:15:04;11.05;;;7.65;;
18899;SDS011;9582;52.018;6.306;2023-05-10T12:17:36;11.88;;;8.45;;
18899;SDS011;9582;52.018;6.306;2023-05-10T12:20:13;11.95;;;8.32;;
18899;SDS011;9582;52.018;6.306;2023-05-10T12:22:44;22.15;;;12.27;;
18899;SDS011;9582;52.018;6.306;2023-05-10T12:25:12;12.07;;;8.55;;
18899;SDS011;9582;52.018;6.306;2023-05-10T12:27:40;10.48;;;8.40;;
18899;SDS011;9582;52.018;6.306;2023-05-10T12:30:07;11.43;;;8.10;;
18899;SDS011;9582;52.018;6.306;2023-05-10T12:32:37;10.07;;;6.85;;
18899;SDS011;9582;52.018;6.306;2023-05-10T12:35:06;9.55;;;8.32;;
18899;SDS011;9582;52.018;6.306;2023-05-10T12:37:33;11.48;;;7.75;;
18899;SDS011;9582;52.018;6.306;2023-05-10T12:40:04;7.75;;;6.70;;
18899;SDS011;9582;52.018;6.306;2023-05-10T12:42:33;7.80;;;6.50;;
18899;SDS011;9582;52.018;6.306;2023-05-10T12:45:01;9.32;;;5.97;;
18899;SDS011;9582;52.018;6.306;2023-05-10T12:47:28;6.90;;;5.72;;
18899;SDS011;9582;52.018;6.306;2023-05-10T12:49:55;7.03;;;5.93;;
18899;SDS011;9582;52.018;6.306;2023-05-10T12:52:21;8.20;;;6.55;;
18899;SDS011;9582;52.018;6.306;2023-05-10T12:54:48;7.38;;;6.15;;
18899;SDS011;9582;52.018;6.306;2023-05-10T12:57:15;8.73;;;5.93;;
18899;SDS011;9582;52.018;6.306;2023-05-10T12:59:41;8.80;;;6.15;;
18899;SDS011;9582;52.018;6.306;2023-05-10T13:02:09;7.97;;;6.57;;
18899;SDS011;9582;52.018;6.306;2023-05-10T13:04:36;10.73;;;6.88;;
18899;SDS011;9582;52.018;6.306;2023-05-10T13:07:04;9.15;;;6.45;;
18899;SDS011;9582;52.018;6.306;2023-05-10T13:09:31;8.98;;;6.65;;
18899;SDS011;9582;52.018;6.306;2023-05-10T13:11:58;8.23;;;6.32;;
18899;SDS011;9582;52.018;6.306;2023-05-10T13:14:24;8.75;;;6.85;;
18899;SDS011;9582;52.018;6.306;2023-05-10T13:16:51;9.30;;;6.85;;
18899;SDS011;9582;52.018;6.306;2023-05-10T13:19:19;7.72;;;6.18;;
18899;SDS011;9582;52.018;6.306;2023-05-10T13:21:46;8.50;;;6.90;;
18899;SDS011;9582;52.018;6.306;2023-05-10T13:24:12;9.50;;;7.10;;
18899;SDS011;9582;52.018;6.306;2023-05-10T13:26:39;9.23;;;6.70;;
18899;SDS011;9582;52.018;6.306;2023-05-10T13:29:06;9.30;;;7.45;;
18899;SDS011;9582;52.018;6.306;2023-05-10T13:31:33;11.02;;;7.82;;
18899;SDS011;9582;52.018;6.306;2023-05-10T13:34:00;8.93;;;7.13;;
18899;SDS011;9582;52.018;6.306;2023-05-10T13:36:28;8.25;;;6.72;;
18899;SDS011;9582;52.018;6.306;2023-05-10T13:38:55;9.27;;;7.15;;
18899;SDS011;9582;52.018;6.306;2023-05-10T13:41:21;9.63;;;6.70;;
18899;SDS011;9582;52.018;6.306;2023-05-10T13:43:48;8.60;;;6.38;;
18899;SDS011;9582;52.018;6.306;2023-05-10T13:46:14;8.48;;;6.30;;
18899;SDS011;9582;52.018;6.306;2023-05-10T13:48:41;8.43;;;5.78;;
18899;SDS011;9582;52.018;6.306;2023-05-10T13:51:07;7.07;;;5.22;;
18899;SDS011;9582;52.018;6.306;2023-05-10T13:53:35;7.55;;;5.97;;
18899;SDS011;9582;52.018;6.306;2023-05-10T13:56:02;8.93;;;6.93;;
18899;SDS011;9582;52.018;6.306;2023-05-10T13:58:28;8.13;;;5.68;;
18899;SDS011;9582;52.018;6.306;2023-05-10T14:00:55;7.05;;;5.90;;
18899;SDS011;9582;52.018;6.306;2023-05-10T14:03:22;9.27;;;6.45;;
18899;SDS011;9582;52.018;6.306;2023-05-10T14:05:48;8.48;;;6.28;;
18899;SDS011;9582;52.018;6.306;2023-05-10T14:08:15;8.85;;;7.15;;
18899;SDS011;9582;52.018;6.306;2023-05-10T14:10:46;7.72;;;6.80;;
18899;SDS011;9582;52.018;6.306;2023-05-10T14:13:13;8.48;;;7.28;;
18899;SDS011;9582;52.018;6.306;2023-05-10T14:15:40;7.65;;;6.80;;
18899;SDS011;9582;52.018;6.306;2023-05-10T14:18:07;8.80;;;6.80;;
18899;SDS011;9582;52.018;6.306;2023-05-10T14:20:33;7.07;;;5.70;;
18899;SDS011;9582;52.018;6.306;2023-05-10T14:22:59;9.20;;;6.35;;
18899;SDS011;9582;52.018;6.306;2023-05-10T14:25:26;7.78;;;6.18;;
18899;SDS011;9582;52.018;6.306;2023-05-10T14:27:54;7.78;;;6.28;;
18899;SDS011;9582;52.018;6.306;2023-05-10T14:30:21;9.02;;;7.13;;
18899;SDS011;9582;52.018;6.306;2023-05-10T14:32:47;9.63;;;6.85;;
18899;SDS011;9582;52.018;6.306;2023-05-10T14:35:13;7.90;;;6.75;;
18899;SDS011;9582;52.018;6.306;2023-05-10T14:37:40;9.85;;;7.03;;
18899;SDS011;9582;52.018;6.306;2023-05-10T14:40:07;9.13;;;6.82;;
18899;SDS011;9582;52.018;6.306;2023-05-10T14:42:34;8.02;;;6.93;;
18899;SDS011;9582;52.018;6.306;2023-05-10T14:45:03;8.60;;;6.90;;
18899;SDS011;9582;52.018;6.306;2023-05-10T14:47:29;9.18;;;7.22;;
18899;SDS011;9582;52.018;6.306;2023-05-10T14:49:56;9.27;;;7.40;;